sensor_id;sensor_type;location;lat;lon;timestamp;temperature;humidity
11474;DHT22;5793;52.238;13.438;2022-10-16T00:02:23;14.50;99.90
11474;DHT22;5793;52.238;13.438;2022-10-16T00:04:50;14.30;99.90
11474;DHT22;5793;52.238;13.438;2022-10-16T00:07:18;14.30;99.90
11474;DHT22;5793;52.238;13.438;2022-10-16T00:09:46;14.30;99.90
11474;DHT22;5793;52.238;13.438;2022-10-16T00:12:14;14.30;99.90
11474;DHT22;5793;52.238;13.438;2022-10-16T00:14:41;14.30;99.90
11474;DHT22;5793;52.238;13.438;2022-10-16T00:17:11;14.30;99.90
11474;DHT22;5793;52.238;13.438;2022-10-16T00:19:39;14.30;99.90
11474;DHT22;5793;52.238;13.438;2022-10-16T00:22:07;14.20;99.90
11474;DHT22;5793;52.238;13.438;2022-10-16T00:24:36;14.20;99.90
11474;DHT22;5793;52.238;13.438;2022-10-16T00:27:03;14.30;99.90
11474;DHT22;5793;52.238;13.438;2022-10-16T00:29:31;14.30;99.90
11474;DHT22;5793;52.238;13.438;2022-10-16T00:31:59;14.30;99.90
11474;DHT22;5793;52.238;13.438;2022-10-16T00:34:28;14.30;99.90
11474;DHT22;5793;52.238;13.438;2022-10-16T00:36:55;14.40;99.90
11474;DHT22;5793;52.238;13.438;2022-10-16T00:39:23;14.40;99.90
11474;DHT22;5793;52.238;13.438;2022-10-16T00:41:51;14.30;99.90
11474;DHT22;5793;52.238;13.438;2022-10-16T00:44:45;14.30;99.90
11474;DHT22;5793;52.238;13.438;2022-10-16T00:47:19;14.40;99.90
11474;DHT22;5793;52.238;13.438;2022-10-16T00:49:50;14.30;99.90
11474;DHT22;5793;52.238;13.438;2022-10-16T00:52:18;14.30;99.90
11474;DHT22;5793;52.238;13.438;2022-10-16T00:54:47;14.20;99.90
11474;DHT22;5793;52.238;13.438;2022-10-16T00:57:17;14.20;99.90
11474;DHT22;5793;52.238;13.438;2022-10-16T00:59:45;14.30;99.90
11474;DHT22;5793;52.238;13.438;2022-10-16T01:02:15;14.30;99.90
11474;DHT22;5793;52.238;13.438;2022-10-16T01:04:46;14.40;99.90
11474;DHT22;5793;52.238;13.438;2022-10-16T01:07:25;14.40;99.90
11474;DHT22;5793;52.238;13.438;2022-10-16T01:10:02;14.40;99.90
11474;DHT22;5793;52.238;13.438;2022-10-16T01:12:39;14.50;99.90
11474;DHT22;5793;52.238;13.438;2022-10-16T01:15:18;14.40;99.90
11474;DHT22;5793;52.238;13.438;2022-10-16T01:17:56;14.30;99.90
11474;DHT22;5793;52.238;13.438;2022-10-16T01:20:27;14.30;99.90
11474;DHT22;5793;52.238;13.438;2022-10-16T01:23:04;14.30;99.90
11474;DHT22;5793;52.238;13.438;2022-10-16T01:26:08;14.20;99.90
11474;DHT22;5793;52.238;13.438;2022-10-16T01:28:41;14.20;99.90
11474;DHT22;5793;52.238;13.438;2022-10-16T01:31:15;14.20;99.90
11474;DHT22;5793;52.238;13.438;2022-10-16T01:33:47;14.10;99.90
11474;DHT22;5793;52.238;13.438;2022-10-16T01:36:21;14.10;99.90
11474;DHT22;5793;52.238;13.438;2022-10-16T01:38:53;14.10;99.90
11474;DHT22;5793;52.238;13.438;2022-10-16T01:41:26;14.10;99.90
11474;DHT22;5793;52.238;13.438;2022-10-16T01:44:02;14.10;99.90
11474;DHT22;5793;52.238;13.438;2022-10-16T01:46:35;14.00;99.90
11474;DHT22;5793;52.238;13.438;2022-10-16T01:49:03;14.00;99.90
11474;DHT22;5793;52.238;13.438;2022-10-16T01:51:34;14.10;99.90
11474;DHT22;5793;52.238;13.438;2022-10-16T01:54:05;14.00;99.90
11474;DHT22;5793;52.238;13.438;2022-10-16T01:56:34;14.00;99.90
11474;DHT22;5793;52.238;13.438;2022-10-16T01:59:06;14.00;99.90
11474;DHT22;5793;52.238;13.438;2022-10-16T02:01:37;14.00;99.90
11474;DHT22;5793;52.238;13.438;2022-10-16T02:04:10;14.00;99.90
11474;DHT22;5793;52.238;13.438;2022-10-16T02:06:39;13.90;99.90
11474;DHT22;5793;52.238;13.438;2022-10-16T02:09:07;14.00;99.90
11474;DHT22;5793;52.238;13.438;2022-10-16T02:11:34;14.00;99.90
11474;DHT22;5793;52.238;13.438;2022-10-16T02:14:05;14.00;99.90
11474;DHT22;5793;52.238;13.438;2022-10-16T02:16:34;14.00;99.90
11474;DHT22;5793;52.238;13.438;2022-10-16T02:19:02;14.00;99.90
11474;DHT22;5793;52.238;13.438;2022-10-16T02:21:35;14.10;99.90
11474;DHT22;5793;52.238;13.438;2022-10-16T02:24:09;14.00;99.90
11474;DHT22;5793;52.238;13.438;2022-10-16T02:26:43;14.10;99.90
11474;DHT22;5793;52.238;13.438;2022-10-16T02:29:16;14.00;99.90
11474;DHT22;5793;52.238;13.438;2022-10-16T02:31:46;14.10;99.90
11474;DHT22;5793;52.238;13.438;2022-10-16T02:34:16;14.10;99.90
11474;DHT22;5793;52.238;13.438;2022-10-16T02:36:46;14.10;99.90
11474;DHT22;5793;52.238;13.438;2022-10-16T02:39:16;14.20;99.90
11474;DHT22;5793;52.238;13.438;2022-10-16T02:41:45;14.30;99.90
11474;DHT22;5793;52.238;13.438;2022-10-16T02:44:14;14.30;99.90
11474;DHT22;5793;52.238;13.438;2022-10-16T02:46:42;14.30;99.90
11474;DHT22;5793;52.238;13.438;2022-10-16T02:49:10;14.40;99.90
11474;DHT22;5793;52.238;13.438;2022-10-16T02:51:37;14.40;99.90
11474;DHT22;5793;52.238;13.438;2022-10-16T02:54:05;14.50;99.90
11474;DHT22;5793;52.238;13.438;2022-10-16T02:56:33;14.40;99.90
11474;DHT22;5793;52.238;13.438;2022-10-16T02:59:00;14.40;99.90
11474;DHT22;5793;52.238;13.438;2022-10-16T03:01:30;14.30;99.90
11474;DHT22;5793;52.238;13.438;2022-10-16T03:03:57;14.20;99.90
11474;DHT22;5793;52.238;13.438;2022-10-16T03:06:25;14.20;99.90
11474;DHT22;5793;52.238;13.438;2022-10-16T03:08:53;14.10;99.90
11474;DHT22;5793;52.238;13.438;2022-10-16T03:11:21;14.10;99.90
11474;DHT22;5793;52.238;13.438;2022-10-16T03:13:48;14.10;99.90
11474;DHT22;5793;52.238;13.438;2022-10-16T03:16:16;14.00;99.90
11474;DHT22;5793;52.238;13.438;2022-10-16T03:18:47;14.00;99.90
11474;DHT22;5793;52.238;13.438;2022-10-16T03:21:15;14.00;99.90
11474;DHT22;5793;52.238;13.438;2022-10-16T03:23:43;14.00;99.90
11474;DHT22;5793;52.238;13.438;2022-10-16T03:26:11;14.00;99.90
11474;DHT22;5793;52.238;13.438;2022-10-16T03:28:38;13.90;99.90
11474;DHT22;5793;52.238;13.438;2022-10-16T03:31:06;13.90;99.90
11474;DHT22;5793;52.238;13.438;2022-10-16T03:33:34;13.90;99.90
11474;DHT22;5793;52.238;13.438;2022-10-16T03:36:04;13.90;99.90
11474;DHT22;5793;52.238;13.438;2022-10-16T03:38:31;13.90;99.90
11474;DHT22;5793;52.238;13.438;2022-10-16T03:40:59;13.80;99.90
11474;DHT22;5793;52.238;13.438;2022-10-16T03:43:27;13.80;99.90
11474;DHT22;5793;52.238;13.438;2022-10-16T03:45:55;13.80;99.90
11474;DHT22;5793;52.238;13.438;2022-10-16T03:48:22;13.70;99.90
11474;DHT22;5793;52.238;13.438;2022-10-16T03:50:50;13.70;99.90
11474;DHT22;5793;52.238;13.438;2022-10-16T03:53:19;13.60;99.90
11474;DHT22;5793;52.238;13.438;2022-10-16T03:55:47;13.60;99.90
11474;DHT22;5793;52.238;13.438;2022-10-16T03:58:15;13.60;99.90
11474;DHT22;5793;52.238;13.438;2022-10-16T04:00:44;13.70;99.90
11474;DHT22;5793;52.238;13.438;2022-10-16T04:03:12;13.70;99.90
11474;DHT22;5793;52.238;13.438;2022-10-16T04:05:40;13.70;99.90
11474;DHT22;5793;52.238;13.438;2022-10-16T04:08:08;13.70;99.90
11474;DHT22;5793;52.238;13.438;2022-10-16T04:10:37;13.70;99.90
11474;DHT22;5793;52.238;13.438;2022-10-16T04:13:05;13.80;99.90
11474;DHT22;5793;52.238;13.438;2022-10-16T04:15:33;13.80;99.90
11474;DHT22;5793;52.238;13.438;2022-10-16T04:18:00;13.90;99.90
11474;DHT22;5793;52.238;13.438;2022-10-16T04:20:28;13.80;99.90
11474;DHT22;5793;52.238;13.438;2022-10-16T04:22:56;13.90;99.90
11474;DHT22;5793;52.238;13.438;2022-10-16T04:25:24;13.90;99.90
11474;DHT22;5793;52.238;13.438;2022-10-16T04:27:54;13.90;99.90
11474;DHT22;5793;52.238;13.438;2022-10-16T04:30:23;14.00;99.90
11474;DHT22;5793;52.238;13.438;2022-10-16T04:32:51;13.90;99.90
11474;DHT22;5793;52.238;13.438;2022-10-16T04:35:20;13.90;99.90
11474;DHT22;5793;52.238;13.438;2022-10-16T04:37:48;13.80;99.90
11474;DHT22;5793;52.238;13.438;2022-10-16T04:40:16;13.70;99.90
11474;DHT22;5793;52.238;13.438;2022-10-16T04:42:44;13.60;99.90
11474;DHT22;5793;52.238;13.438;2022-10-16T04:45:13;13.50;99.90
11474;DHT22;5793;52.238;13.438;2022-10-16T04:47:42;13.50;99.90
11474;DHT22;5793;52.238;13.438;2022-10-16T04:50:10;13.60;99.90
11474;DHT22;5793;52.238;13.438;2022-10-16T04:52:38;13.60;99.90
11474;DHT22;5793;52.238;13.438;2022-10-16T04:55:06;13.70;99.90
11474;DHT22;5793;52.238;13.438;2022-10-16T04:57:34;13.70;99.90
11474;DHT22;5793;52.238;13.438;2022-10-16T05:00:03;13.50;99.90
11474;DHT22;5793;52.238;13.438;2022-10-16T05:02:32;13.50;99.90
11474;DHT22;5793;52.238;13.438;2022-10-16T05:04:59;13.50;99.90
11474;DHT22;5793;52.238;13.438;2022-10-16T05:07:27;13.40;99.90
11474;DHT22;5793;52.238;13.438;2022-10-16T05:09:55;13.40;99.90
11474;DHT22;5793;52.238;13.438;2022-10-16T05:12:23;13.40;99.90
11474;DHT22;5793;52.238;13.438;2022-10-16T05:14:50;13.40;99.90
11474;DHT22;5793;52.238;13.438;2022-10-16T05:17:18;13.30;99.90
11474;DHT22;5793;52.238;13.438;2022-10-16T05:19:47;13.30;99.90
11474;DHT22;5793;52.238;13.438;2022-10-16T05:22:15;13.30;99.90
11474;DHT22;5793;52.238;13.438;2022-10-16T05:24:42;13.40;99.90
11474;DHT22;5793;52.238;13.438;2022-10-16T05:27:10;13.30;99.90
11474;DHT22;5793;52.238;13.438;2022-10-16T05:29:45;13.40;99.90
11474;DHT22;5793;52.238;13.438;2022-10-16T05:32:14;13.40;99.90
11474;DHT22;5793;52.238;13.438;2022-10-16T05:34:42;13.40;99.90
11474;DHT22;5793;52.238;13.438;2022-10-16T05:37:12;13.30;99.90
11474;DHT22;5793;52.238;13.438;2022-10-16T05:39:39;13.30;99.90
11474;DHT22;5793;52.238;13.438;2022-10-16T05:42:07;13.20;99.90
11474;DHT22;5793;52.238;13.438;2022-10-16T05:44:35;13.10;99.90
11474;DHT22;5793;52.238;13.438;2022-10-16T05:47:03;13.20;99.90
11474;DHT22;5793;52.238;13.438;2022-10-16T05:49:30;13.10;99.90
11474;DHT22;5793;52.238;13.438;2022-10-16T05:52:02;13.10;99.90
11474;DHT22;5793;52.238;13.438;2022-10-16T05:54:31;13.10;99.90
11474;DHT22;5793;52.238;13.438;2022-10-16T05:56:59;13.00;99.90
11474;DHT22;5793;52.238;13.438;2022-10-16T05:59:26;13.10;99.90
11474;DHT22;5793;52.238;13.438;2022-10-16T06:01:54;13.10;99.90
11474;DHT22;5793;52.238;13.438;2022-10-16T06:04:22;13.20;99.90
11474;DHT22;5793;52.238;13.438;2022-10-16T06:06:50;13.20;99.90
11474;DHT22;5793;52.238;13.438;2022-10-16T06:09:17;13.20;99.90
11474;DHT22;5793;52.238;13.438;2022-10-16T06:11:46;13.20;99.90
11474;DHT22;5793;52.238;13.438;2022-10-16T06:14:14;13.10;99.90
11474;DHT22;5793;52.238;13.438;2022-10-16T06:16:42;13.20;99.90
11474;DHT22;5793;52.238;13.438;2022-10-16T06:19:10;13.30;99.90
11474;DHT22;5793;52.238;13.438;2022-10-16T06:21:38;13.40;99.90
11474;DHT22;5793;52.238;13.438;2022-10-16T06:24:05;13.50;99.90
11474;DHT22;5793;52.238;13.438;2022-10-16T06:26:33;13.60;99.90
11474;DHT22;5793;52.238;13.438;2022-10-16T06:29:02;13.70;99.90
11474;DHT22;5793;52.238;13.438;2022-10-16T06:31:30;13.90;99.90
11474;DHT22;5793;52.238;13.438;2022-10-16T06:34:00;14.10;99.90
11474;DHT22;5793;52.238;13.438;2022-10-16T06:36:28;14.40;99.90
11474;DHT22;5793;52.238;13.438;2022-10-16T06:38:56;14.50;99.90
11474;DHT22;5793;52.238;13.438;2022-10-16T06:41:24;14.60;99.90
11474;DHT22;5793;52.238;13.438;2022-10-16T06:43:52;14.60;99.90
11474;DHT22;5793;52.238;13.438;2022-10-16T06:46:22;14.70;99.90
11474;DHT22;5793;52.238;13.438;2022-10-16T06:48:50;14.70;99.90
11474;DHT22;5793;52.238;13.438;2022-10-16T06:51:19;14.80;99.90
11474;DHT22;5793;52.238;13.438;2022-10-16T06:53:49;14.90;99.90
11474;DHT22;5793;52.238;13.438;2022-10-16T06:56:30;14.90;99.90
11474;DHT22;5793;52.238;13.438;2022-10-16T06:58:59;14.90;99.90
11474;DHT22;5793;52.238;13.438;2022-10-16T07:01:28;14.80;99.90
11474;DHT22;5793;52.238;13.438;2022-10-16T07:03:56;14.80;99.90
11474;DHT22;5793;52.238;13.438;2022-10-16T07:06:25;14.80;99.90
11474;DHT22;5793;52.238;13.438;2022-10-16T07:08:54;14.80;99.90
11474;DHT22;5793;52.238;13.438;2022-10-16T07:11:23;14.80;99.90
11474;DHT22;5793;52.238;13.438;2022-10-16T07:13:51;14.80;99.90
11474;DHT22;5793;52.238;13.438;2022-10-16T07:16:23;14.90;99.90
11474;DHT22;5793;52.238;13.438;2022-10-16T07:18:53;15.10;99.90
11474;DHT22;5793;52.238;13.438;2022-10-16T07:21:26;15.40;99.90
11474;DHT22;5793;52.238;13.438;2022-10-16T07:23:56;15.60;99.90
11474;DHT22;5793;52.238;13.438;2022-10-16T07:26:26;15.80;99.90
11474;DHT22;5793;52.238;13.438;2022-10-16T07:28:54;16.00;99.90
11474;DHT22;5793;52.238;13.438;2022-10-16T07:31:23;15.90;99.90
11474;DHT22;5793;52.238;13.438;2022-10-16T07:33:53;15.90;99.90
11474;DHT22;5793;52.238;13.438;2022-10-16T07:36:21;15.90;99.90
11474;DHT22;5793;52.238;13.438;2022-10-16T07:38:49;16.20;99.90
11474;DHT22;5793;52.238;13.438;2022-10-16T07:41:22;16.60;99.90
11474;DHT22;5793;52.238;13.438;2022-10-16T07:43:51;17.00;99.90
11474;DHT22;5793;52.238;13.438;2022-10-16T07:46:22;17.30;99.90
11474;DHT22;5793;52.238;13.438;2022-10-16T07:48:50;17.50;99.90
11474;DHT22;5793;52.238;13.438;2022-10-16T07:51:21;17.70;99.90
11474;DHT22;5793;52.238;13.438;2022-10-16T07:53:49;17.80;99.90
11474;DHT22;5793;52.238;13.438;2022-10-16T07:56:18;17.90;99.90
11474;DHT22;5793;52.238;13.438;2022-10-16T07:58:46;17.90;99.90
11474;DHT22;5793;52.238;13.438;2022-10-16T08:01:16;18.00;99.90
11474;DHT22;5793;52.238;13.438;2022-10-16T08:03:46;18.00;99.90
11474;DHT22;5793;52.238;13.438;2022-10-16T08:06:14;18.00;99.90
11474;DHT22;5793;52.238;13.438;2022-10-16T08:08:44;17.90;99.90
11474;DHT22;5793;52.238;13.438;2022-10-16T08:11:11;17.90;99.90
11474;DHT22;5793;52.238;13.438;2022-10-16T08:13:40;17.90;99.90
11474;DHT22;5793;52.238;13.438;2022-10-16T08:16:08;17.80;99.90
11474;DHT22;5793;52.238;13.438;2022-10-16T08:18:37;17.80;99.90
11474;DHT22;5793;52.238;13.438;2022-10-16T08:21:06;17.80;99.90
11474;DHT22;5793;52.238;13.438;2022-10-16T08:23:34;18.00;99.90
11474;DHT22;5793;52.238;13.438;2022-10-16T08:26:05;18.30;99.90
11474;DHT22;5793;52.238;13.438;2022-10-16T08:28:33;18.50;99.90
11474;DHT22;5793;52.238;13.438;2022-10-16T08:31:06;18.70;99.90
11474;DHT22;5793;52.238;13.438;2022-10-16T08:33:34;18.90;99.90
11474;DHT22;5793;52.238;13.438;2022-10-16T08:36:03;19.00;99.90
11474;DHT22;5793;52.238;13.438;2022-10-16T08:38:31;19.20;99.90
11474;DHT22;5793;52.238;13.438;2022-10-16T08:41:19;19.50;99.90
11474;DHT22;5793;52.238;13.438;2022-10-16T08:44:06;20.60;99.90
11474;DHT22;5793;52.238;13.438;2022-10-16T08:46:43;21.80;99.90
11474;DHT22;5793;52.238;13.438;2022-10-16T08:49:16;21.40;99.90
11474;DHT22;5793;52.238;13.438;2022-10-16T08:51:45;21.00;99.90
11474;DHT22;5793;52.238;13.438;2022-10-16T08:54:23;20.60;99.90
11474;DHT22;5793;52.238;13.438;2022-10-16T08:56:55;20.20;99.90
11474;DHT22;5793;52.238;13.438;2022-10-16T08:59:23;19.80;99.90
11474;DHT22;5793;52.238;13.438;2022-10-16T09:01:52;19.70;99.90
11474;DHT22;5793;52.238;13.438;2022-10-16T09:04:49;19.80;99.90
11474;DHT22;5793;52.238;13.438;2022-10-16T09:07:27;19.90;99.90
11474;DHT22;5793;52.238;13.438;2022-10-16T09:10:11;19.70;99.90
11474;DHT22;5793;52.238;13.438;2022-10-16T09:12:51;19.60;99.90
11474;DHT22;5793;52.238;13.438;2022-10-16T09:15:28;19.50;99.90
11474;DHT22;5793;52.238;13.438;2022-10-16T09:18:00;19.60;99.90
11474;DHT22;5793;52.238;13.438;2022-10-16T09:20:34;19.70;99.90
11474;DHT22;5793;52.238;13.438;2022-10-16T09:23:15;19.60;99.90
11474;DHT22;5793;52.238;13.438;2022-10-16T09:25:46;19.50;99.90
11474;DHT22;5793;52.238;13.438;2022-10-16T09:28:19;19.60;99.90
11474;DHT22;5793;52.238;13.438;2022-10-16T09:30:47;19.90;99.90
11474;DHT22;5793;52.238;13.438;2022-10-16T09:33:18;20.30;99.90
11474;DHT22;5793;52.238;13.438;2022-10-16T09:35:49;21.00;99.90
11474;DHT22;5793;52.238;13.438;2022-10-16T09:38:22;21.70;99.90
11474;DHT22;5793;52.238;13.438;2022-10-16T09:40:50;21.70;99.90
11474;DHT22;5793;52.238;13.438;2022-10-16T09:43:34;21.10;99.90
11474;DHT22;5793;52.238;13.438;2022-10-16T09:46:04;20.60;99.90
11474;DHT22;5793;52.238;13.438;2022-10-16T09:48:36;20.20;99.90
11474;DHT22;5793;52.238;13.438;2022-10-16T09:51:06;19.90;99.90
11474;DHT22;5793;52.238;13.438;2022-10-16T09:53:44;19.80;99.90
11474;DHT22;5793;52.238;13.438;2022-10-16T09:56:22;19.80;99.90
11474;DHT22;5793;52.238;13.438;2022-10-16T09:58:53;19.70;99.90
11474;DHT22;5793;52.238;13.438;2022-10-16T10:01:22;19.80;99.90
11474;DHT22;5793;52.238;13.438;2022-10-16T10:03:56;20.00;99.90
11474;DHT22;5793;52.238;13.438;2022-10-16T10:09:03;22.10;99.90
11474;DHT22;5793;52.238;13.438;2022-10-16T10:11:43;21.80;99.90
11474;DHT22;5793;52.238;13.438;2022-10-16T10:14:22;20.90;99.90
11474;DHT22;5793;52.238;13.438;2022-10-16T10:16:51;20.50;99.90
11474;DHT22;5793;52.238;13.438;2022-10-16T10:19:21;20.20;99.90
11474;DHT22;5793;52.238;13.438;2022-10-16T10:21:52;20.00;99.90
11474;DHT22;5793;52.238;13.438;2022-10-16T10:24:20;20.00;99.90
11474;DHT22;5793;52.238;13.438;2022-10-16T10:26:56;20.20;99.90
11474;DHT22;5793;52.238;13.438;2022-10-16T10:29:37;20.40;99.90
11474;DHT22;5793;52.238;13.438;2022-10-16T10:32:14;20.50;99.90
11474;DHT22;5793;52.238;13.438;2022-10-16T10:34:55;20.70;99.90
11474;DHT22;5793;52.238;13.438;2022-10-16T10:37:39;20.70;99.90
11474;DHT22;5793;52.238;13.438;2022-10-16T10:40:21;20.70;99.90
11474;DHT22;5793;52.238;13.438;2022-10-16T10:42:53;20.70;99.90
11474;DHT22;5793;52.238;13.438;2022-10-16T10:45:31;20.70;99.90
11474;DHT22;5793;52.238;13.438;2022-10-16T10:48:21;21.00;99.90
11474;DHT22;5793;52.238;13.438;2022-10-16T10:50:59;20.90;99.90
11474;DHT22;5793;52.238;13.438;2022-10-16T10:53:36;20.90;99.90
11474;DHT22;5793;52.238;13.438;2022-10-16T10:56:16;20.90;99.90
11474;DHT22;5793;52.238;13.438;2022-10-16T11:01:50;21.10;99.90
11474;DHT22;5793;52.238;13.438;2022-10-16T11:07:19;21.50;99.90
11474;DHT22;5793;52.238;13.438;2022-10-16T11:09:51;21.60;99.90
11474;DHT22;5793;52.238;13.438;2022-10-16T11:12:25;21.80;99.90
11474;DHT22;5793;52.238;13.438;2022-10-16T11:14:58;21.70;99.90
11474;DHT22;5793;52.238;13.438;2022-10-16T11:17:33;21.70;99.90
11474;DHT22;5793;52.238;13.438;2022-10-16T11:20:10;21.90;99.90
11474;DHT22;5793;52.238;13.438;2022-10-16T11:22:42;21.90;99.90
11474;DHT22;5793;52.238;13.438;2022-10-16T11:25:14;21.90;99.90
11474;DHT22;5793;52.238;13.438;2022-10-16T11:27:47;21.80;99.90
11474;DHT22;5793;52.238;13.438;2022-10-16T11:30:19;21.80;99.90
11474;DHT22;5793;52.238;13.438;2022-10-16T11:33:00;22.00;99.90
11474;DHT22;5793;52.238;13.438;2022-10-16T11:35:40;22.10;99.90
11474;DHT22;5793;52.238;13.438;2022-10-16T11:38:14;22.30;99.90
11474;DHT22;5793;52.238;13.438;2022-10-16T11:40:45;22.50;99.90
11474;DHT22;5793;52.238;13.438;2022-10-16T11:43:19;22.70;99.90
11474;DHT22;5793;52.238;13.438;2022-10-16T11:45:52;22.80;99.90
11474;DHT22;5793;52.238;13.438;2022-10-16T11:48:27;22.80;99.90
11474;DHT22;5793;52.238;13.438;2022-10-16T11:51:03;22.50;99.90
11474;DHT22;5793;52.238;13.438;2022-10-16T11:53:42;22.00;99.90
11474;DHT22;5793;52.238;13.438;2022-10-16T11:56:14;21.60;99.90
11474;DHT22;5793;52.238;13.438;2022-10-16T11:58:52;21.50;99.90
11474;DHT22;5793;52.238;13.438;2022-10-16T12:01:28;21.50;99.90
11474;DHT22;5793;52.238;13.438;2022-10-16T12:04:06;21.80;99.90
11474;DHT22;5793;52.238;13.438;2022-10-16T12:06:42;22.30;99.90
11474;DHT22;5793;52.238;13.438;2022-10-16T12:09:16;22.60;99.90
11474;DHT22;5793;52.238;13.438;2022-10-16T12:11:46;22.80;99.90
11474;DHT22;5793;52.238;13.438;2022-10-16T12:17:33;22.50;99.90
11474;DHT22;5793;52.238;13.438;2022-10-16T12:20:22;22.50;99.90
11474;DHT22;5793;52.238;13.438;2022-10-16T12:22:54;22.50;99.90
11474;DHT22;5793;52.238;13.438;2022-10-16T12:25:25;22.70;99.90
11474;DHT22;5793;52.238;13.438;2022-10-16T12:27:59;22.70;99.90
11474;DHT22;5793;52.238;13.438;2022-10-16T12:30:30;22.80;99.90
11474;DHT22;5793;52.238;13.438;2022-10-16T12:33:02;23.00;99.90
11474;DHT22;5793;52.238;13.438;2022-10-16T12:35:34;23.10;99.90
11474;DHT22;5793;52.238;13.438;2022-10-16T12:38:08;23.10;99.90
11474;DHT22;5793;52.238;13.438;2022-10-16T12:40:43;23.10;99.90
11474;DHT22;5793;52.238;13.438;2022-10-16T12:43:34;23.00;99.90
11474;DHT22;5793;52.238;13.438;2022-10-16T12:46:05;23.00;99.90
11474;DHT22;5793;52.238;13.438;2022-10-16T12:48:34;23.10;99.90
11474;DHT22;5793;52.238;13.438;2022-10-16T12:51:25;22.90;99.90
11474;DHT22;5793;52.238;13.438;2022-10-16T12:54:00;22.90;99.90
11474;DHT22;5793;52.238;13.438;2022-10-16T12:56:39;23.00;99.90
11474;DHT22;5793;52.238;13.438;2022-10-16T12:59:16;22.90;99.90
11474;DHT22;5793;52.238;13.438;2022-10-16T13:02:01;22.80;99.90
11474;DHT22;5793;52.238;13.438;2022-10-16T13:04:50;22.50;99.90
11474;DHT22;5793;52.238;13.438;2022-10-16T13:07:37;22.30;99.90
11474;DHT22;5793;52.238;13.438;2022-10-16T13:10:14;22.30;99.90
11474;DHT22;5793;52.238;13.438;2022-10-16T13:12:54;22.20;99.90
11474;DHT22;5793;52.238;13.438;2022-10-16T13:15:53;22.20;99.90
11474;DHT22;5793;52.238;13.438;2022-10-16T13:18:32;22.10;99.90
11474;DHT22;5793;52.238;13.438;2022-10-16T13:21:14;22.00;99.90
11474;DHT22;5793;52.238;13.438;2022-10-16T13:23:51;22.00;99.90
11474;DHT22;5793;52.238;13.438;2022-10-16T13:26:28;22.10;99.90
11474;DHT22;5793;52.238;13.438;2022-10-16T13:28:59;22.10;99.90
11474;DHT22;5793;52.238;13.438;2022-10-16T13:31:28;22.00;99.90
11474;DHT22;5793;52.238;13.438;2022-10-16T13:33:58;21.90;99.90
11474;DHT22;5793;52.238;13.438;2022-10-16T13:36:28;22.00;99.90
11474;DHT22;5793;52.238;13.438;2022-10-16T13:39:10;21.90;99.90
11474;DHT22;5793;52.238;13.438;2022-10-16T13:41:39;21.90;99.90
11474;DHT22;5793;52.238;13.438;2022-10-16T13:44:13;21.80;99.90
11474;DHT22;5793;52.238;13.438;2022-10-16T13:46:42;21.80;99.90
11474;DHT22;5793;52.238;13.438;2022-10-16T13:49:14;21.70;99.90
11474;DHT22;5793;52.238;13.438;2022-10-16T13:51:54;21.60;99.90
11474;DHT22;5793;52.238;13.438;2022-10-16T13:54:24;21.50;99.90
11474;DHT22;5793;52.238;13.438;2022-10-16T13:56:52;21.40;99.90
11474;DHT22;5793;52.238;13.438;2022-10-16T13:59:36;21.30;99.90
11474;DHT22;5793;52.238;13.438;2022-10-16T14:02:15;21.30;99.90
11474;DHT22;5793;52.238;13.438;2022-10-16T14:04:46;21.30;99.90
11474;DHT22;5793;52.238;13.438;2022-10-16T14:07:20;21.30;99.90
11474;DHT22;5793;52.238;13.438;2022-10-16T14:09:51;21.20;99.90
11474;DHT22;5793;52.238;13.438;2022-10-16T14:12:22;21.30;99.90
11474;DHT22;5793;52.238;13.438;2022-10-16T14:14:55;21.40;99.90
11474;DHT22;5793;52.238;13.438;2022-10-16T14:17:26;21.40;99.90
11474;DHT22;5793;52.238;13.438;2022-10-16T14:19:57;21.40;99.90
11474;DHT22;5793;52.238;13.438;2022-10-16T14:22:33;21.20;99.90
11474;DHT22;5793;52.238;13.438;2022-10-16T14:25:23;21.00;99.90
11474;DHT22;5793;52.238;13.438;2022-10-16T14:27:58;20.80;99.90
11474;DHT22;5793;52.238;13.438;2022-10-16T14:30:28;20.70;99.90
11474;DHT22;5793;52.238;13.438;2022-10-16T14:32:58;20.70;99.90
11474;DHT22;5793;52.238;13.438;2022-10-16T14:35:29;20.80;99.90
11474;DHT22;5793;52.238;13.438;2022-10-16T14:37:59;20.80;99.90
11474;DHT22;5793;52.238;13.438;2022-10-16T14:40:31;20.80;99.90
11474;DHT22;5793;52.238;13.438;2022-10-16T14:42:59;20.80;99.90
11474;DHT22;5793;52.238;13.438;2022-10-16T14:45:30;20.80;99.90
11474;DHT22;5793;52.238;13.438;2022-10-16T14:48:00;20.80;99.90
11474;DHT22;5793;52.238;13.438;2022-10-16T14:50:29;20.80;99.90
11474;DHT22;5793;52.238;13.438;2022-10-16T14:52:56;20.70;99.90
11474;DHT22;5793;52.238;13.438;2022-10-16T14:55:25;20.60;99.90
11474;DHT22;5793;52.238;13.438;2022-10-16T14:57:55;20.60;99.90
11474;DHT22;5793;52.238;13.438;2022-10-16T15:00:26;20.50;99.90
11474;DHT22;5793;52.238;13.438;2022-10-16T15:02:54;20.30;99.90
11474;DHT22;5793;52.238;13.438;2022-10-16T15:05:24;20.20;99.90
11474;DHT22;5793;52.238;13.438;2022-10-16T15:07:53;20.20;99.90
11474;DHT22;5793;52.238;13.438;2022-10-16T15:10:23;20.20;99.90
11474;DHT22;5793;52.238;13.438;2022-10-16T15:12:51;20.20;99.90
11474;DHT22;5793;52.238;13.438;2022-10-16T15:15:33;20.20;99.90
11474;DHT22;5793;52.238;13.438;2022-10-16T15:18:01;20.10;99.90
11474;DHT22;5793;52.238;13.438;2022-10-16T15:20:31;20.10;99.90
11474;DHT22;5793;52.238;13.438;2022-10-16T15:23:00;20.10;99.90
11474;DHT22;5793;52.238;13.438;2022-10-16T15:25:35;20.00;99.90
11474;DHT22;5793;52.238;13.438;2022-10-16T15:28:04;19.80;99.90
11474;DHT22;5793;52.238;13.438;2022-10-16T15:30:35;19.70;99.90
11474;DHT22;5793;52.238;13.438;2022-10-16T15:33:04;19.50;99.90
11474;DHT22;5793;52.238;13.438;2022-10-16T15:35:32;19.30;99.90
11474;DHT22;5793;52.238;13.438;2022-10-16T15:38:00;19.20;99.90
11474;DHT22;5793;52.238;13.438;2022-10-16T15:40:28;19.00;99.90
11474;DHT22;5793;52.238;13.438;2022-10-16T15:42:56;19.00;99.90
11474;DHT22;5793;52.238;13.438;2022-10-16T15:45:23;19.00;99.90
11474;DHT22;5793;52.238;13.438;2022-10-16T15:47:53;19.00;99.90
11474;DHT22;5793;52.238;13.438;2022-10-16T15:50:20;18.90;99.90
11474;DHT22;5793;52.238;13.438;2022-10-16T15:52:49;18.80;99.90
11474;DHT22;5793;52.238;13.438;2022-10-16T15:55:18;18.70;99.90
11474;DHT22;5793;52.238;13.438;2022-10-16T15:57:45;18.40;99.90
11474;DHT22;5793;52.238;13.438;2022-10-16T16:00:15;18.20;99.90
11474;DHT22;5793;52.238;13.438;2022-10-16T16:02:49;17.90;99.90
11474;DHT22;5793;52.238;13.438;2022-10-16T16:05:19;17.70;99.90
11474;DHT22;5793;52.238;13.438;2022-10-16T16:07:48;17.50;99.90
11474;DHT22;5793;52.238;13.438;2022-10-16T16:10:16;17.30;99.90